createdAt,value
2018-03-26T00:00:11.053Z,33.87
2018-03-26T00:02:36.905Z,34.80
2018-03-26T00:05:02.777Z,35.37
2018-03-26T00:07:28.957Z,32.23
2018-03-26T00:09:54.896Z,32.17
2018-03-26T00:12:20.809Z,31.50
2018-03-26T00:14:46.698Z,28.33
2018-03-26T00:17:12.550Z,27.77
2018-03-26T00:19:38.409Z,28.10
2018-03-26T00:22:04.413Z,32.03
2018-03-26T00:24:30.273Z,28.70
2018-03-26T00:26:56.124Z,29.47
2018-03-26T00:29:22.007Z,33.53
2018-03-26T00:31:47.864Z,33.10
2018-03-26T00:34:13.797Z,30.77
2018-03-26T00:36:39.688Z,31.00
2018-03-26T00:39:05.567Z,31.43
2018-03-26T00:41:31.425Z,28.53
2018-03-26T00:43:57.321Z,31.60
2018-03-26T00:46:23.269Z,28.13
2018-03-26T00:48:49.116Z,32.47
2018-03-26T00:51:15.070Z,32.30
2018-03-26T00:53:42.997Z,31.30
2018-03-26T00:56:08.874Z,29.40
2018-03-26T00:58:34.828Z,30.53
2018-03-26T01:01:00.685Z,28.27
2018-03-26T01:03:26.554Z,28.97
2018-03-26T01:05:52.476Z,28.90
2018-03-26T01:08:18.321Z,31.00
2018-03-26T01:10:44.278Z,27.73
2018-03-26T01:13:10.172Z,29.80
2018-03-26T01:15:36.033Z,29.03
2018-03-26T01:18:01.913Z,28.53
2018-03-26T01:20:27.824Z,31.13
2018-03-26T01:22:53.784Z,28.13
2018-03-26T01:25:19.635Z,29.37
2018-03-26T01:27:45.541Z,29.27
2018-03-26T01:30:11.388Z,30.53
2018-03-26T01:32:37.237Z,30.77
2018-03-26T01:35:03.224Z,29.43
2018-03-26T01:37:29.078Z,31.37
2018-03-26T01:39:54.920Z,28.77
2018-03-26T01:42:21.112Z,29.40
2018-03-26T01:44:46.960Z,29.77
2018-03-26T01:47:12.911Z,29.77
2018-03-26T01:49:38.812Z,29.63
2018-03-26T01:52:04.706Z,28.87
2018-03-26T01:54:30.570Z,28.67
2018-03-26T01:56:56.478Z,26.90
2018-03-26T01:59:22.423Z,29.10
2018-03-26T02:01:48.273Z,31.13
2018-03-26T02:04:14.238Z,30.20
2018-03-26T02:06:40.090Z,30.10
2018-03-26T02:09:05.960Z,31.47
2018-03-26T02:11:32.237Z,31.47
2018-03-26T02:13:58.097Z,31.80
2018-03-26T02:16:23.945Z,29.93
2018-03-26T02:18:49.865Z,32.47
2018-03-26T02:21:15.731Z,25.80
2018-03-26T02:23:41.684Z,28.10
2018-03-26T02:26:07.741Z,29.93
2018-03-26T02:28:33.605Z,25.20
2018-03-26T02:30:59.461Z,26.43
2018-03-26T02:33:25.366Z,28.40
2018-03-26T02:35:51.317Z,28.63
2018-03-26T02:38:17.177Z,30.03
2018-03-26T02:40:43.059Z,29.40
2018-03-26T02:43:08.930Z,29.73
2018-03-26T02:45:34.792Z,28.63
2018-03-26T02:48:00.796Z,26.40
2018-03-26T02:50:26.741Z,29.53
2018-03-26T02:52:52.598Z,28.83
2018-03-26T02:55:18.493Z,29.60
2018-03-26T02:57:44.345Z,28.30
2018-03-26T03:00:10.287Z,24.20
2018-03-26T03:02:36.182Z,28.87
2018-03-26T03:05:02.069Z,27.83
2018-03-26T03:07:27.929Z,28.57
2018-03-26T03:09:53.869Z,30.10
2018-03-26T03:12:19.800Z,29.40
2018-03-26T03:14:45.648Z,29.03
2018-03-26T03:17:11.844Z,26.70
2018-03-26T03:19:37.721Z,29.17
2018-03-26T03:22:03.629Z,28.90
2018-03-26T03:24:29.607Z,27.93
2018-03-26T03:26:55.461Z,27.30
2018-03-26T03:29:21.321Z,28.13
2018-03-26T03:31:47.225Z,28.60
2018-03-26T03:34:13.136Z,28.93
2018-03-26T03:36:39.085Z,28.27
2018-03-26T03:39:04.968Z,28.00
2018-03-26T03:41:30.820Z,26.17
2018-03-26T03:43:56.664Z,29.13
2018-03-26T03:46:22.644Z,25.60
2018-03-26T03:48:48.583Z,27.77
2018-03-26T03:51:14.435Z,29.07
2018-03-26T03:53:40.726Z,26.23
2018-03-26T03:56:06.607Z,27.07
2018-03-26T03:58:32.500Z,27.77
2018-03-26T04:00:58.502Z,27.33
2018-03-26T04:03:24.359Z,29.33
2018-03-26T04:05:50.238Z,28.37
2018-03-26T04:08:16.133Z,28.37
2018-03-26T04:10:42.024Z,27.77
2018-03-26T04:13:07.957Z,28.07
2018-03-26T04:15:33.852Z,27.87
2018-03-26T04:17:59.718Z,27.03
2018-03-26T04:20:25.564Z,28.60
2018-03-26T04:22:51.508Z,27.33
2018-03-26T04:25:17.457Z,28.33
2018-03-26T04:27:43.296Z,27.80
2018-03-26T04:30:09.194Z,28.33
2018-03-26T04:32:35.060Z,28.83
2018-03-26T04:35:00.968Z,26.57
2018-03-26T04:37:26.941Z,28.37
2018-03-26T04:39:52.800Z,26.93
2018-03-26T04:42:18.653Z,29.43
2018-03-26T04:44:44.544Z,28.17
2018-03-26T04:47:10.443Z,28.63
2018-03-26T04:49:36.389Z,27.10
2018-03-26T04:52:02.593Z,27.93
2018-03-26T04:54:28.466Z,28.00
2018-03-26T04:56:54.317Z,28.77
2018-03-26T04:59:20.365Z,30.80
2018-03-26T05:01:46.320Z,29.63
2018-03-26T05:04:12.182Z,28.43
2018-03-26T05:06:38.089Z,29.33
2018-03-26T05:09:03.972Z,26.70
2018-03-26T05:11:29.949Z,30.10
2018-03-26T05:13:55.880Z,30.00
2018-03-26T05:16:21.793Z,31.17
2018-03-26T05:18:47.884Z,28.63
2018-03-26T05:21:13.810Z,29.30
2018-03-26T05:23:39.669Z,27.83
2018-03-26T05:26:05.532Z,28.57
2018-03-26T05:28:31.739Z,29.07
2018-03-26T05:30:57.594Z,31.20
2018-03-26T05:33:23.599Z,30.43
2018-03-26T05:35:49.528Z,29.20
2018-03-26T05:38:15.400Z,30.17
2018-03-26T05:40:41.239Z,30.03
2018-03-26T05:43:07.150Z,29.47
2018-03-26T05:45:33.009Z,27.60
2018-03-26T05:47:58.865Z,25.80
2018-03-26T05:50:24.836Z,30.27
2018-03-26T05:52:50.698Z,30.80
2018-03-26T05:55:16.622Z,30.27
2018-03-26T05:57:42.869Z,30.83
2018-03-26T06:00:08.769Z,30.57
2018-03-26T06:02:34.759Z,29.93
2018-03-26T06:05:00.669Z,29.53
2018-03-26T06:07:26.538Z,28.30
2018-03-26T06:09:52.393Z,29.53
2018-03-26T06:12:18.292Z,24.50
2018-03-26T06:14:44.297Z,29.50
2018-03-26T06:17:15.848Z,30.10
2018-03-26T06:19:41.768Z,27.40
2018-03-26T06:22:07.677Z,27.80
2018-03-26T06:24:33.570Z,29.57
2018-03-26T06:26:59.560Z,29.47
2018-03-26T06:29:25.426Z,29.20
2018-03-26T06:31:51.288Z,28.93
2018-03-26T06:34:17.199Z,29.53
2018-03-26T06:36:49.220Z,30.37
2018-03-26T06:39:21.232Z,30.50
2018-03-26T06:41:47.554Z,29.53
2018-03-26T06:44:13.499Z,29.23
2018-03-26T06:46:39.473Z,30.70
2018-03-26T06:49:05.389Z,30.13
2018-03-26T06:51:31.362Z,31.17
2018-03-26T06:53:57.401Z,29.83
2018-03-26T06:56:23.367Z,29.67
2018-03-26T06:58:49.293Z,30.37
2018-03-26T07:01:15.328Z,29.77
2018-03-26T07:03:41.406Z,32.30
2018-03-26T07:06:07.278Z,30.77
2018-03-26T07:08:33.206Z,30.63
2018-03-26T07:10:59.076Z,30.57
2018-03-26T07:13:24.997Z,30.63
2018-03-26T07:15:50.913Z,30.23
2018-03-26T07:18:17.036Z,29.53
2018-03-26T07:20:42.956Z,29.47
2018-03-26T07:23:09.386Z,32.17
2018-03-26T07:25:35.288Z,28.50
2018-03-26T07:28:01.666Z,30.27
2018-03-26T07:30:27.602Z,30.43
2018-03-26T07:32:53.468Z,30.30
2018-03-26T07:35:19.440Z,28.00
2018-03-26T07:37:45.373Z,29.03
2018-03-26T07:40:11.266Z,27.77
2018-03-26T07:42:37.157Z,28.43
2018-03-26T07:45:03.089Z,28.27
2018-03-26T07:47:28.937Z,26.67
2018-03-26T07:49:54.776Z,26.60
2018-03-26T07:52:20.673Z,27.00
2018-03-26T07:54:46.540Z,24.73
2018-03-26T07:57:12.388Z,24.80
2018-03-26T07:59:38.305Z,24.17
2018-03-26T08:02:04.164Z,24.57
2018-03-26T08:04:30.223Z,24.70
2018-03-26T08:06:56.153Z,25.13
2018-03-26T08:09:22.025Z,23.90
2018-03-26T08:11:47.918Z,24.97
2018-03-26T08:14:13.840Z,23.77
2018-03-26T08:16:39.833Z,25.50
2018-03-26T08:19:05.692Z,25.27
2018-03-26T08:21:31.597Z,25.60
2018-03-26T08:23:57.465Z,24.77
2018-03-26T08:26:23.316Z,25.43
2018-03-26T08:28:49.303Z,25.17
2018-03-26T08:31:15.253Z,24.13
2018-03-26T08:33:41.224Z,25.50
2018-03-26T08:36:07.498Z,26.10
2018-03-26T08:38:33.348Z,25.47
2018-03-26T08:40:59.342Z,27.53
2018-03-26T08:43:25.346Z,28.57
2018-03-26T08:45:51.214Z,27.00
2018-03-26T08:48:17.121Z,30.13
2018-03-26T08:50:43.046Z,28.33
2018-03-26T08:53:09.092Z,31.47
2018-03-26T08:55:34.937Z,32.23
2018-03-26T08:58:00.890Z,32.97
2018-03-26T09:00:26.764Z,32.63
2018-03-26T09:02:52.646Z,33.37
2018-03-26T09:05:18.949Z,34.27
2018-03-26T09:07:44.915Z,33.40
2018-03-26T09:10:10.842Z,33.20
2018-03-26T09:12:36.948Z,32.30
2018-03-26T09:15:02.826Z,33.73
2018-03-26T09:17:28.756Z,35.20
2018-03-26T09:19:55.834Z,35.73
2018-03-26T09:22:21.733Z,36.00
2018-03-26T09:24:47.581Z,34.17
2018-03-26T09:27:13.510Z,35.07
2018-03-26T09:29:39.385Z,34.10
2018-03-26T09:32:16.618Z,34.43
2018-03-26T09:34:43.277Z,31.87
2018-03-26T09:37:09.145Z,33.77
2018-03-26T09:39:35.002Z,32.37
2018-03-26T09:42:00.914Z,33.93
2018-03-26T09:44:26.811Z,32.80
2018-03-26T09:46:52.664Z,34.00
2018-03-26T09:49:18.617Z,35.20
2018-03-26T09:51:44.618Z,34.57
2018-03-26T09:54:10.522Z,33.50
2018-03-26T09:56:36.498Z,35.17
2018-03-26T09:59:02.370Z,36.07
2018-03-26T10:01:31.125Z,34.03
2018-03-26T10:03:57.033Z,35.07
2018-03-26T10:06:22.916Z,35.93
2018-03-26T10:08:48.776Z,35.23
2018-03-26T10:11:14.683Z,36.83
2018-03-26T10:13:40.555Z,35.77
2018-03-26T10:16:06.463Z,36.00
2018-03-26T10:18:32.442Z,35.73
2018-03-26T10:20:58.332Z,36.53
2018-03-26T10:23:24.210Z,36.70
2018-03-26T10:25:50.974Z,36.87
2018-03-26T10:28:16.853Z,38.63
2018-03-26T10:30:42.710Z,37.30
2018-03-26T10:33:08.622Z,38.93
2018-03-26T10:35:34.497Z,39.13
2018-03-26T10:38:00.367Z,40.97
2018-03-26T10:40:26.278Z,40.40
2018-03-26T10:42:52.161Z,40.83
2018-03-26T10:45:18.036Z,41.30
2018-03-26T10:47:43.941Z,41.83
2018-03-26T10:50:09.824Z,39.30
2018-03-26T10:52:35.702Z,41.00
2018-03-26T10:55:01.607Z,40.80
2018-03-26T10:57:27.479Z,42.13
2018-03-26T10:59:53.361Z,42.00
2018-03-26T11:02:19.286Z,42.17
2018-03-26T11:04:45.169Z,43.00
2018-03-26T11:07:11.073Z,47.03
2018-03-26T11:09:37.039Z,43.43
2018-03-26T11:12:02.926Z,42.60
2018-03-26T11:14:28.796Z,44.13
2018-03-26T11:16:54.698Z,42.60
2018-03-26T11:19:20.630Z,43.20
2018-03-26T11:21:46.508Z,40.50
2018-03-26T11:24:12.439Z,42.03
2018-03-26T11:26:38.313Z,42.27
2018-03-26T11:29:04.181Z,42.23
2018-03-26T11:31:30.098Z,41.27
2018-03-26T11:33:55.964Z,41.60
2018-03-26T11:36:21.902Z,42.30
2018-03-26T11:38:47.759Z,41.70
2018-03-26T11:41:13.630Z,41.10
2018-03-26T11:43:39.498Z,44.23
2018-03-26T11:46:05.426Z,42.20
2018-03-26T11:48:31.285Z,42.47
2018-03-26T11:50:57.143Z,42.93
2018-03-26T11:53:23.065Z,56.13
2018-03-26T11:55:48.922Z,47.47
2018-03-26T11:58:14.765Z,42.87
2018-03-26T12:00:40.669Z,42.37
2018-03-26T12:03:06.551Z,33.90
2018-03-26T12:05:32.425Z,36.63
2018-03-26T12:07:58.334Z,36.37
2018-03-26T12:10:24.210Z,36.83
2018-03-26T12:12:50.057Z,35.77
2018-03-26T12:15:15.965Z,35.47
2018-03-26T12:17:41.866Z,34.87
2018-03-26T12:20:20.364Z,29.07
2018-03-26T12:22:46.214Z,29.43
2018-03-26T12:25:12.088Z,27.10
2018-03-26T12:27:50.459Z,26.20
2018-03-26T12:30:20.234Z,26.57
2018-03-26T12:32:46.093Z,25.43
2018-03-26T12:35:24.349Z,28.17
2018-03-26T12:37:50.215Z,27.33
2018-03-26T12:40:28.376Z,28.00
2018-03-26T12:42:54.222Z,30.77
2018-03-26T12:45:32.353Z,35.07
2018-03-26T12:47:58.230Z,34.20
2018-03-26T12:50:37.071Z,35.77
2018-03-26T12:53:02.950Z,36.03
2018-03-26T12:55:28.832Z,35.17
2018-03-26T12:58:07.102Z,39.03
2018-03-26T13:00:32.972Z,39.23
2018-03-26T13:02:58.820Z,36.90
2018-03-26T13:05:24.716Z,37.23
2018-03-26T13:07:50.575Z,36.37
2018-03-26T13:10:16.432Z,35.93
2018-03-26T13:12:42.345Z,33.57
2018-03-26T13:15:08.211Z,34.00
2018-03-26T13:17:34.065Z,35.13
2018-03-26T13:19:59.966Z,34.70
2018-03-26T13:22:25.908Z,34.87
2018-03-26T13:24:51.779Z,33.00
2018-03-26T13:27:17.674Z,32.87
2018-03-26T13:29:43.521Z,33.27
2018-03-26T13:32:09.373Z,32.70
2018-03-26T13:34:35.281Z,30.37
2018-03-26T13:37:01.140Z,31.10
2018-03-26T13:39:26.989Z,30.23
2018-03-26T13:41:52.898Z,29.27
2018-03-26T13:44:18.752Z,29.93
2018-03-26T13:46:44.625Z,27.43
2018-03-26T13:49:10.525Z,27.40
2018-03-26T13:51:36.404Z,26.80
2018-03-26T13:54:02.285Z,28.57
2018-03-26T13:56:28.196Z,27.23
2018-03-26T13:58:54.055Z,26.53
2018-03-26T14:01:19.912Z,26.50
2018-03-26T14:03:45.828Z,26.13
2018-03-26T14:06:11.718Z,25.67
2018-03-26T14:08:49.997Z,24.97
2018-03-26T14:11:28.173Z,26.50
2018-03-26T14:14:06.349Z,26.20
2018-03-26T14:16:44.483Z,23.53
2018-03-26T14:19:10.372Z,21.97
2018-03-26T14:21:36.225Z,21.37
2018-03-26T14:24:02.158Z,20.50
2018-03-26T14:26:28.052Z,18.93
2018-03-26T14:28:53.913Z,17.00
2018-03-26T14:31:19.808Z,15.23
2018-03-26T14:33:45.702Z,15.97
2018-03-26T14:36:11.562Z,14.90
2018-03-26T14:38:37.513Z,12.73
2018-03-26T14:41:03.430Z,13.30
2018-03-26T14:43:29.383Z,12.03
2018-03-26T14:45:55.260Z,12.53
2018-03-26T14:48:21.269Z,12.43
2018-03-26T14:50:47.176Z,12.20
2018-03-26T14:53:13.030Z,12.53
2018-03-26T14:55:38.949Z,12.13
2018-03-26T14:58:04.812Z,11.60
2018-03-26T15:00:30.792Z,11.33
2018-03-26T15:02:56.702Z,11.13
2018-03-26T15:05:22.557Z,10.90
2018-03-26T15:07:48.437Z,11.70
2018-03-26T15:10:14.413Z,11.60
2018-03-26T15:12:40.365Z,10.90
2018-03-26T15:15:06.266Z,10.83
2018-03-26T15:17:32.197Z,10.43
2018-03-26T15:19:58.052Z,10.90
2018-03-26T15:22:23.926Z,11.97
2018-03-26T15:24:49.837Z,10.43
2018-03-26T15:27:15.758Z,10.53
2018-03-26T15:29:41.609Z,9.90
2018-03-26T15:32:07.551Z,8.50
2018-03-26T15:34:33.418Z,10.10
2018-03-26T15:36:59.302Z,9.27
2018-03-26T15:39:25.198Z,9.50
2018-03-26T15:41:51.080Z,9.83
2018-03-26T15:44:16.953Z,9.27
2018-03-26T15:46:42.869Z,9.93
2018-03-26T15:49:08.733Z,9.47
2018-03-26T15:51:34.720Z,10.33
2018-03-26T15:54:00.607Z,10.87
2018-03-26T15:56:26.502Z,10.07
2018-03-26T15:58:52.364Z,9.90
2018-03-26T16:01:18.514Z,9.50
2018-03-26T16:03:44.405Z,10.27
2018-03-26T16:06:10.275Z,11.47
2018-03-26T16:08:36.180Z,8.97
2018-03-26T16:11:02.066Z,9.03
2018-03-26T16:13:28.022Z,8.13
2018-03-26T16:15:53.920Z,9.47
2018-03-26T16:18:19.797Z,8.40
2018-03-26T16:20:45.644Z,7.33
2018-03-26T16:23:11.553Z,7.00
2018-03-26T16:25:37.514Z,7.10
2018-03-26T16:28:03.372Z,6.67
2018-03-26T16:30:29.264Z,6.00
2018-03-26T16:32:55.141Z,6.80
2018-03-26T16:35:20.997Z,6.40
2018-03-26T16:37:47.007Z,6.53
2018-03-26T16:40:12.853Z,6.13
2018-03-26T16:42:42.473Z,6.73
2018-03-26T16:45:08.462Z,6.40
2018-03-26T16:47:34.317Z,6.40
2018-03-26T16:50:00.181Z,6.60
2018-03-26T16:52:26.080Z,6.90
2018-03-26T16:54:51.948Z,5.90
2018-03-26T16:57:17.890Z,6.53
2018-03-26T16:59:43.769Z,6.70
2018-03-26T17:02:09.617Z,6.10
2018-03-26T17:04:35.866Z,6.20
2018-03-26T17:07:01.834Z,6.17
2018-03-26T17:09:27.742Z,6.60
2018-03-26T17:11:53.620Z,6.13
2018-03-26T17:14:19.533Z,6.33
2018-03-26T17:16:45.390Z,7.63
2018-03-26T17:19:11.442Z,7.80
2018-03-26T17:21:37.698Z,7.80
2018-03-26T17:24:03.615Z,8.17
2018-03-26T17:26:29.481Z,8.03
2018-03-26T17:28:55.408Z,7.57
2018-03-26T17:31:21.409Z,7.50
2018-03-26T17:33:47.322Z,8.50
2018-03-26T17:36:13.343Z,7.93
2018-03-26T17:38:39.325Z,8.20
2018-03-26T17:41:05.238Z,8.67
2018-03-26T17:43:31.136Z,7.90
2018-03-26T17:45:57.155Z,9.00
2018-03-26T17:48:31.980Z,8.30
2018-03-26T17:50:58.106Z,8.50
2018-03-26T17:53:23.992Z,8.03
2018-03-26T17:55:49.898Z,8.57
2018-03-26T17:58:15.767Z,8.43
2018-03-26T18:00:42.215Z,8.37
2018-03-26T18:03:08.700Z,7.40
2018-03-26T18:05:34.588Z,7.53
2018-03-26T18:08:00.508Z,7.90
2018-03-26T18:10:26.418Z,7.37
2018-03-26T18:12:52.297Z,7.40
2018-03-26T18:15:18.203Z,8.13
2018-03-26T18:17:44.125Z,8.20
2018-03-26T18:20:09.997Z,7.90
2018-03-26T18:22:35.921Z,8.50
2018-03-26T18:25:01.820Z,9.10
2018-03-26T18:27:27.685Z,7.90
2018-03-26T18:29:53.658Z,8.37
2018-03-26T18:32:19.586Z,10.27
2018-03-26T18:34:45.454Z,9.60
2018-03-26T18:37:11.314Z,11.57
2018-03-26T18:39:37.241Z,10.03
2018-03-26T18:42:03.105Z,9.60
2018-03-26T18:44:29.028Z,9.30
2018-03-26T18:46:54.929Z,9.33
2018-03-26T18:49:20.784Z,9.37
2018-03-26T18:51:46.714Z,9.97
2018-03-26T18:54:12.724Z,11.80
2018-03-26T18:56:38.708Z,10.17
2018-03-26T18:59:05.688Z,9.80
2018-03-26T19:01:32.254Z,9.07
2018-03-26T19:03:58.153Z,9.13
2018-03-26T19:06:24.548Z,9.03
2018-03-26T19:08:50.738Z,8.33
2018-03-26T19:11:16.951Z,9.03
2018-03-26T19:13:43.062Z,9.33
2018-03-26T19:16:09.097Z,8.40
2018-03-26T19:18:35.421Z,8.63
2018-03-26T19:21:01.507Z,8.23
2018-03-26T19:23:28.003Z,8.90
2018-03-26T19:25:54.420Z,7.73
2018-03-26T19:28:20.689Z,8.53
2018-03-26T19:30:46.606Z,8.97
2018-03-26T19:33:12.893Z,8.87
2018-03-26T19:35:38.918Z,8.30
2018-03-26T19:38:04.996Z,8.77
2018-03-26T19:40:31.352Z,8.73
2018-03-26T19:42:57.261Z,9.07
2018-03-26T19:45:23.187Z,7.60
2018-03-26T19:47:49.072Z,8.17
2018-03-26T19:50:14.952Z,8.00
2018-03-26T19:52:40.849Z,9.03
2018-03-26T19:55:07.048Z,8.20
2018-03-26T19:57:33.165Z,8.67
2018-03-26T19:59:59.343Z,8.33
2018-03-26T20:02:25.649Z,9.03
2018-03-26T20:04:52.768Z,7.30
2018-03-26T20:07:18.863Z,9.93
2018-03-26T20:09:44.823Z,8.10
2018-03-26T20:12:10.891Z,8.77
2018-03-26T20:14:36.843Z,8.83
2018-03-26T20:17:02.849Z,8.20
2018-03-26T20:19:28.763Z,8.30
2018-03-26T20:21:55.049Z,8.53
2018-03-26T20:24:20.917Z,9.03
2018-03-26T20:26:47.002Z,7.80
2018-03-26T20:29:13.213Z,8.63
2018-03-26T20:31:39.307Z,7.97
2018-03-26T20:34:05.418Z,9.27
2018-03-26T20:36:31.895Z,8.47
2018-03-26T20:38:57.954Z,8.53
2018-03-26T20:41:24.264Z,8.53
2018-03-26T20:43:50.716Z,7.83
2018-03-26T20:46:16.747Z,7.53
2018-03-26T20:48:43.019Z,8.60
2018-03-26T20:51:09.194Z,9.10
2018-03-26T20:53:35.666Z,8.83
2018-03-26T20:56:01.867Z,8.87
2018-03-26T20:58:27.943Z,9.73
2018-03-26T21:00:54.078Z,9.40
2018-03-26T21:03:20.043Z,8.63
2018-03-26T21:05:46.400Z,9.47
2018-03-26T21:08:12.400Z,9.03
2018-03-26T21:10:38.556Z,9.50
2018-03-26T21:13:04.587Z,9.30
2018-03-26T21:15:30.528Z,9.80
2018-03-26T21:17:56.714Z,9.03
2018-03-26T21:20:22.841Z,9.40
2018-03-26T21:22:48.785Z,8.83
2018-03-26T21:25:14.763Z,9.33
2018-03-26T21:27:40.895Z,10.03
2018-03-26T21:30:07.177Z,10.07
2018-03-26T21:32:33.102Z,8.80
2018-03-26T21:34:59.012Z,9.80
2018-03-26T21:37:25.107Z,9.40
2018-03-26T21:39:51.411Z,8.90
2018-03-26T21:42:17.599Z,9.07
2018-03-26T21:44:43.484Z,9.50
2018-03-26T21:47:09.354Z,10.30
2018-03-26T21:49:35.287Z,10.17
2018-03-26T21:52:01.244Z,11.00
2018-03-26T21:54:27.144Z,10.47
2018-03-26T21:56:53.057Z,10.17
2018-03-26T21:59:19.048Z,10.03
2018-03-26T22:01:44.935Z,10.33
2018-03-26T22:04:11.731Z,9.33
2018-03-26T22:06:37.660Z,9.53
2018-03-26T22:09:03.540Z,9.97
2018-03-26T22:11:29.525Z,9.80
2018-03-26T22:13:55.404Z,10.43
2018-03-26T22:16:21.370Z,10.57
2018-03-26T22:18:47.265Z,10.37
2018-03-26T22:21:13.128Z,11.33
2018-03-26T22:23:39.068Z,10.63
2018-03-26T22:26:04.985Z,10.27
2018-03-26T22:28:30.838Z,10.13
2018-03-26T22:30:56.692Z,10.00
2018-03-26T22:33:22.596Z,11.00
2018-03-26T22:35:48.460Z,11.00
2018-03-26T22:38:14.320Z,10.80
2018-03-26T22:40:40.217Z,10.27
2018-03-26T22:43:06.118Z,10.67
2018-03-26T22:45:32.021Z,10.77
2018-03-26T22:47:57.921Z,10.83
2018-03-26T22:50:23.809Z,10.10
2018-03-26T22:52:49.668Z,11.10
2018-03-26T22:55:15.566Z,10.30
2018-03-26T22:57:41.508Z,11.10
2018-03-26T23:00:07.437Z,10.97
2018-03-26T23:02:33.318Z,10.93
2018-03-26T23:04:59.209Z,11.00
2018-03-26T23:07:25.092Z,10.30
2018-03-26T23:09:51.307Z,11.07
2018-03-26T23:12:17.173Z,11.30
2018-03-26T23:14:43.037Z,10.67
2018-03-26T23:17:08.930Z,11.63
2018-03-26T23:19:34.792Z,11.00
2018-03-26T23:22:00.646Z,11.30
2018-03-26T23:24:26.542Z,10.30
2018-03-26T23:26:52.501Z,10.67
2018-03-26T23:29:18.355Z,10.90
2018-03-26T23:31:44.260Z,10.60
2018-03-26T23:34:10.130Z,11.43
2018-03-26T23:36:35.994Z,11.27
2018-03-26T23:39:01.930Z,11.23
2018-03-26T23:41:27.872Z,11.30
2018-03-26T23:43:53.720Z,11.20
2018-03-26T23:46:19.633Z,11.00
2018-03-26T23:48:45.584Z,11.30
2018-03-26T23:51:11.452Z,12.00
2018-03-26T23:53:37.389Z,11.77
2018-03-26T23:56:03.237Z,12.40
2018-03-26T23:58:29.096Z,12.27
